createdAt,value
2023-02-18T00:04:02.746Z,20.52
2023-02-18T00:05:02.946Z,20.49
2023-02-18T00:06:02.852Z,20.50
2023-02-18T00:07:02.684Z,20.50
2023-02-18T00:08:02.694Z,20.50
2023-02-18T00:09:02.750Z,20.48
2023-02-18T00:10:02.767Z,20.49
2023-02-18T00:11:02.870Z,20.46
2023-02-18T00:12:02.888Z,20.49
2023-02-18T00:13:02.932Z,20.48
2023-02-18T00:14:03.008Z,20.48
2023-02-18T00:15:03.031Z,20.47
2023-02-18T00:16:03.167Z,20.48
2023-02-18T00:17:03.161Z,20.48
2023-02-18T00:18:03.214Z,20.49
2023-02-18T00:19:03.306Z,20.49
2023-02-18T00:20:03.322Z,20.48
2023-02-18T00:21:03.353Z,20.47
2023-02-18T00:22:03.433Z,20.47
2023-02-18T00:23:03.509Z,20.48
2023-02-18T00:24:03.526Z,20.47
2023-02-18T00:25:03.596Z,20.46
2023-02-18T00:26:03.672Z,20.47
2023-02-18T00:27:03.695Z,20.46
2023-02-18T00:28:03.753Z,20.47
2023-02-18T00:29:03.836Z,20.47
2023-02-18T00:30:03.876Z,20.47
2023-02-18T00:31:04.036Z,20.47
2023-02-18T00:32:04.012Z,20.50
2023-02-18T00:33:04.036Z,20.47
2023-02-18T00:34:04.103Z,20.48
2023-02-18T00:35:04.169Z,20.49
2023-02-18T00:36:04.203Z,20.50
2023-02-18T00:37:04.260Z,20.50
2023-02-18T00:38:04.317Z,20.51
2023-02-18T00:39:04.426Z,20.48
2023-02-18T00:40:04.454Z,20.51
2023-02-18T00:41:04.500Z,20.48
2023-02-18T00:42:04.597Z,20.50
2023-02-18T00:43:04.594Z,20.50
2023-02-18T00:44:04.686Z,20.50
2023-02-18T00:45:04.719Z,20.51
2023-02-18T00:46:04.965Z,20.52
2023-02-18T00:47:04.837Z,20.54
2023-02-18T00:48:04.914Z,20.52
2023-02-18T00:49:04.954Z,20.51
2023-02-18T00:50:05.055Z,20.52
2023-02-18T00:51:05.100Z,20.54
2023-02-18T00:52:05.179Z,20.51
2023-02-18T00:53:05.192Z,20.51
2023-02-18T00:54:05.304Z,20.52
2023-02-18T00:55:05.347Z,20.52
2023-02-18T00:56:05.558Z,20.54
2023-02-18T00:57:05.445Z,20.53
2023-02-18T00:58:05.533Z,20.51
2023-02-18T00:59:05.591Z,20.53
2023-02-18T01:00:05.645Z,20.55
2023-02-18T01:01:07.399Z,20.55
2023-02-18T01:02:05.748Z,20.54
2023-02-18T01:03:05.827Z,20.54
2023-02-18T01:04:05.880Z,20.55
2023-02-18T01:05:05.997Z,20.56
2023-02-18T01:06:06.229Z,20.57
2023-02-18T01:07:06.093Z,20.55
2023-02-18T01:08:06.146Z,20.55
2023-02-18T01:09:06.220Z,20.56
2023-02-18T01:10:06.274Z,20.57
2023-02-18T01:11:06.335Z,20.56
2023-02-18T01:12:06.405Z,20.56
2023-02-18T01:13:06.471Z,20.58
2023-02-18T01:14:06.542Z,20.55
2023-02-18T01:15:06.566Z,20.56
2023-02-18T01:16:07.119Z,20.56
2023-02-18T01:17:06.731Z,20.56
2023-02-18T01:18:06.772Z,20.57
2023-02-18T01:19:06.844Z,20.60
2023-02-18T01:20:06.912Z,20.59
2023-02-18T01:21:06.961Z,20.60
2023-02-18T01:22:07.784Z,20.57
2023-02-18T01:23:07.058Z,20.59
2023-02-18T01:24:07.096Z,20.58
2023-02-18T01:25:07.177Z,20.61
2023-02-18T01:26:07.613Z,20.59
2023-02-18T01:27:07.303Z,20.58
2023-02-18T01:28:07.381Z,20.59
2023-02-18T01:29:07.445Z,20.60
2023-02-18T01:30:07.495Z,20.59
2023-02-18T01:31:07.657Z,20.61
2023-02-18T01:32:07.852Z,20.61
2023-02-18T01:33:07.719Z,20.60
2023-02-18T01:34:07.802Z,20.61
2023-02-18T01:35:07.826Z,20.60
2023-02-18T01:36:08.237Z,20.62
2023-02-18T01:37:07.943Z,20.64
2023-02-18T01:38:08.016Z,20.63
2023-02-18T01:39:08.057Z,20.64
2023-02-18T01:40:08.114Z,20.64
2023-02-18T01:41:08.170Z,20.63
2023-02-18T01:42:08.251Z,20.60
2023-02-18T01:43:08.337Z,20.64
2023-02-18T01:44:08.350Z,20.63
2023-02-18T01:45:08.461Z,20.65
2023-02-18T01:46:08.914Z,20.63
2023-02-18T01:47:08.552Z,20.64
2023-02-18T01:50:08.743Z,20.60
2023-02-18T01:51:08.811Z,20.61
2023-02-18T01:52:08.857Z,20.59
2023-02-18T01:53:08.934Z,20.59
2023-02-18T01:54:09.000Z,20.60
2023-02-18T01:55:09.065Z,20.58
2023-02-18T01:56:09.557Z,20.61
2023-02-18T01:57:09.158Z,20.58
2023-02-18T01:58:09.211Z,20.59
2023-02-18T01:59:09.322Z,20.60
2023-02-18T02:00:09.344Z,20.57
2023-02-18T02:01:09.495Z,20.57
2023-02-18T02:02:09.497Z,20.57
2023-02-18T02:03:09.551Z,20.57
2023-02-18T02:04:09.560Z,20.57
2023-02-18T02:05:09.660Z,20.54
2023-02-18T02:06:09.901Z,20.56
2023-02-18T02:07:09.746Z,20.54
2023-02-18T02:08:09.821Z,20.54
2023-02-18T02:09:09.896Z,20.56
2023-02-18T02:10:09.921Z,20.56
2023-02-18T02:11:10.026Z,20.55
2023-02-18T02:12:10.077Z,20.55
2023-02-18T02:13:10.132Z,20.53
2023-02-18T02:46:13.220Z,20.61
2023-02-18T02:56:12.654Z,20.59
2023-02-18T02:57:12.718Z,20.59
2023-02-18T02:58:12.796Z,20.58
2023-02-18T02:59:12.816Z,20.60
2023-02-18T03:00:12.887Z,20.58
2023-02-18T03:01:12.988Z,20.60
2023-02-18T03:02:12.990Z,20.57
2023-02-18T03:03:13.076Z,20.58
2023-02-18T03:04:13.070Z,20.58
2023-02-18T03:05:13.104Z,20.58
2023-02-18T03:06:13.112Z,20.57
2023-02-18T03:07:13.156Z,20.58
2023-02-18T03:08:13.234Z,20.57
2023-02-18T03:09:13.269Z,20.56
2023-02-18T03:10:13.333Z,20.58
2023-02-18T03:11:13.363Z,20.58
2023-02-18T03:12:13.450Z,20.57
2023-02-18T03:13:13.472Z,20.57
2023-02-18T03:14:13.540Z,20.55
2023-02-18T03:15:13.562Z,20.56
2023-02-18T03:16:13.691Z,20.54
2023-02-18T03:17:13.696Z,20.56
2023-02-18T03:18:13.754Z,20.55
2023-02-18T03:19:13.753Z,20.54
2023-02-18T03:20:13.793Z,20.55
2023-02-18T03:21:13.864Z,20.55
2023-02-18T03:22:13.873Z,20.54
2023-02-18T03:23:14.000Z,20.55
2023-02-18T03:24:14.007Z,20.55
2023-02-18T03:25:14.030Z,20.55
2023-02-18T03:26:14.139Z,20.53
2023-02-18T03:27:14.178Z,20.53
2023-02-18T03:28:14.224Z,20.54
2023-02-18T03:29:14.276Z,20.52
2023-02-18T03:30:14.377Z,20.51
2023-02-18T03:31:14.399Z,20.54
2023-02-18T03:32:14.497Z,20.52
2023-02-18T03:33:14.550Z,20.51
2023-02-18T03:34:14.582Z,20.50
2023-02-18T03:35:14.651Z,20.51
2023-02-18T03:36:14.696Z,20.53
2023-02-18T03:37:14.801Z,20.51
2023-02-18T03:38:14.817Z,20.51
2023-02-18T03:39:14.899Z,20.50
2023-02-18T03:40:14.931Z,20.51
2023-02-18T03:41:15.004Z,20.49
2023-02-18T03:42:15.085Z,20.51
2023-02-18T03:43:15.109Z,20.49
2023-02-18T03:44:15.181Z,20.51
2023-02-18T03:45:15.277Z,20.50
2023-02-18T03:46:15.370Z,20.47
2023-02-18T03:47:15.404Z,20.48
2023-02-18T03:48:15.498Z,20.47
2023-02-18T03:49:15.503Z,20.50
2023-02-18T03:50:15.544Z,20.49
2023-02-18T03:51:15.614Z,20.49
2023-02-18T03:52:15.716Z,20.47
2023-02-18T03:53:15.760Z,20.48
2023-02-18T03:54:15.844Z,20.47
2023-02-18T03:55:15.881Z,20.48
2023-02-18T03:56:16.075Z,20.47
2023-02-18T03:57:16.013Z,20.47
2023-02-18T03:58:16.078Z,20.47
2023-02-18T03:59:16.109Z,20.47
2023-02-18T04:00:16.202Z,20.47
2023-02-18T04:01:16.288Z,20.46
2023-02-18T04:02:16.305Z,20.46
2023-02-18T04:03:16.392Z,20.48
2023-02-18T04:04:16.477Z,20.47
2023-02-18T04:05:16.484Z,20.46
2023-02-18T04:06:16.565Z,20.47
2023-02-18T04:07:16.606Z,20.47
2023-02-18T04:08:16.658Z,20.47
2023-02-18T04:09:16.704Z,20.47
2023-02-18T04:10:16.761Z,20.44
2023-02-18T04:11:16.814Z,20.44
2023-02-18T04:12:16.910Z,20.44
2023-02-18T04:13:17.019Z,20.45
2023-02-18T04:14:17.029Z,20.44
2023-02-18T04:15:17.100Z,20.45
2023-02-18T04:16:17.163Z,20.46
2023-02-18T04:17:17.181Z,20.44
2023-02-18T04:18:17.235Z,20.43
2023-02-18T04:19:17.295Z,20.42
2023-02-18T04:20:17.389Z,20.44
2023-02-18T04:21:17.442Z,20.43
2023-02-18T04:22:17.469Z,20.42
2023-02-18T04:23:17.580Z,20.40
2023-02-18T04:24:17.600Z,20.42
2023-02-18T04:25:17.660Z,20.41
2023-02-18T04:26:17.741Z,20.40
2023-02-18T04:27:17.810Z,20.41
2023-02-18T04:28:17.866Z,20.39
2023-02-18T04:29:17.924Z,20.40
2023-02-18T04:30:19.078Z,20.39
2023-02-18T04:31:18.075Z,20.39
2023-02-18T04:32:18.050Z,20.39
2023-02-18T04:33:18.143Z,20.38
2023-02-18T04:34:18.141Z,20.39
2023-02-18T04:35:18.206Z,20.38
2023-02-18T04:36:18.283Z,20.40
2023-02-18T04:37:18.325Z,20.39
2023-02-18T04:38:18.411Z,20.38
2023-02-18T04:39:18.443Z,20.35
2023-02-18T04:40:18.495Z,20.39
2023-02-18T04:41:18.559Z,20.37
2023-02-18T04:42:18.636Z,20.36
2023-02-18T04:43:18.677Z,20.35
2023-02-18T04:44:18.743Z,20.36
2023-02-18T04:45:18.809Z,20.37
2023-02-18T04:46:18.929Z,20.35
2023-02-18T04:47:18.938Z,20.35
2023-02-18T04:48:18.986Z,20.35
2023-02-18T04:49:19.035Z,20.35
2023-02-18T04:50:19.094Z,20.34
2023-02-18T04:51:19.144Z,20.36
2023-02-18T04:52:19.231Z,20.37
2023-02-18T04:53:19.326Z,20.34
2023-02-18T04:54:19.334Z,20.33
2023-02-18T04:55:19.425Z,20.32
2023-02-18T04:56:19.480Z,20.34
2023-02-18T04:57:19.536Z,20.32
2023-02-18T04:58:19.624Z,20.32
2023-02-18T04:59:19.666Z,20.32
2023-02-18T05:00:19.688Z,20.30
2023-02-18T05:01:19.829Z,20.31
2023-02-18T05:02:19.806Z,20.31
2023-02-18T05:03:19.872Z,20.30
2023-02-18T05:04:19.984Z,20.31
2023-02-18T05:05:20.005Z,20.31
2023-02-18T05:06:20.050Z,20.30
2023-02-18T05:07:20.111Z,20.30
2023-02-18T05:08:20.174Z,20.29
2023-02-18T05:09:20.245Z,20.30
2023-02-18T05:10:20.313Z,20.30
2023-02-18T05:11:20.344Z,20.31
2023-02-18T05:18:20.814Z,20.29
2023-02-18T05:19:20.838Z,20.27
2023-02-18T05:20:20.871Z,20.29
2023-02-18T05:21:20.963Z,20.30
2023-02-18T05:22:21.021Z,20.30
2023-02-18T05:23:21.042Z,20.28
2023-02-18T05:24:21.163Z,20.27
2023-02-18T05:25:21.164Z,20.29
2023-02-18T05:26:21.236Z,20.27
2023-02-18T05:27:21.310Z,20.28
2023-02-18T05:28:21.367Z,20.27
2023-02-18T05:29:21.439Z,20.26
2023-02-18T05:30:21.522Z,20.27
2023-02-18T05:31:21.662Z,20.25
2023-02-18T05:32:21.637Z,20.25
2023-02-18T05:33:21.701Z,20.28
2023-02-18T05:34:21.775Z,20.27
2023-02-18T05:35:21.810Z,20.25
2023-02-18T05:36:21.889Z,20.24
2023-02-18T05:37:21.923Z,20.26
2023-02-18T05:38:21.982Z,20.24
2023-02-18T05:39:22.063Z,20.24
2023-02-18T05:40:22.243Z,20.23
2023-02-18T05:41:22.161Z,20.25
2023-02-18T05:42:22.234Z,20.24
2023-02-18T05:45:22.429Z,20.23
2023-02-18T05:46:22.510Z,20.24
2023-02-18T05:47:22.572Z,20.25
2023-02-18T05:48:22.634Z,20.23
2023-02-18T05:49:22.693Z,20.24
2023-02-18T05:50:22.741Z,20.23
2023-02-18T05:51:22.821Z,20.23
2023-02-18T05:52:22.851Z,20.23
2023-02-18T05:53:22.923Z,20.22
2023-02-18T05:54:22.994Z,20.23
2023-02-18T05:55:23.004Z,20.23
2023-02-18T05:56:23.086Z,20.23
2023-02-18T05:57:23.163Z,20.22
2023-02-18T05:58:23.240Z,20.22
2023-02-18T05:59:23.265Z,20.19
2023-02-18T06:00:23.332Z,20.22
2023-02-18T06:01:23.384Z,20.22
2023-02-18T06:02:23.514Z,20.22
2023-02-18T06:03:23.527Z,20.19
2023-02-18T06:04:23.617Z,20.18
2023-02-18T06:05:23.657Z,20.22
2023-02-18T06:06:23.860Z,20.19
2023-02-18T06:07:23.749Z,20.20
2023-02-18T06:08:23.828Z,20.22
2023-02-18T06:09:23.906Z,20.20
2023-02-18T06:10:23.937Z,20.21
2023-02-18T06:11:23.983Z,20.19
2023-02-18T06:12:24.094Z,20.19
2023-02-18T06:13:24.160Z,20.19
2023-02-18T06:14:24.220Z,20.22
2023-02-18T06:15:24.250Z,20.20
2023-02-18T06:16:24.407Z,20.21
2023-02-18T06:17:24.390Z,20.19
2023-02-18T06:18:24.432Z,20.19
2023-02-18T06:19:24.502Z,20.17
2023-02-18T06:20:24.561Z,20.19
2023-02-18T06:21:24.625Z,20.18
2023-02-18T06:22:24.687Z,20.17
2023-02-18T06:23:24.736Z,20.17
2023-02-18T06:24:24.862Z,20.18
2023-02-18T06:25:24.899Z,20.18
2023-02-18T06:26:24.960Z,20.18
2023-02-18T06:27:25.014Z,20.19
2023-02-18T06:28:25.035Z,20.19
2023-02-18T06:29:25.113Z,20.16
2023-02-18T06:30:25.265Z,20.19
2023-02-18T06:31:25.429Z,20.16
2023-02-18T06:32:25.405Z,20.16
2023-02-18T06:33:25.375Z,20.19
2023-02-18T06:34:25.420Z,20.17
2023-02-18T06:35:25.478Z,20.18
2023-02-18T06:36:25.538Z,20.15
2023-02-18T06:37:25.585Z,20.16
2023-02-18T06:38:25.647Z,20.16
2023-02-18T06:39:25.724Z,20.16
2023-02-18T06:40:25.773Z,20.18
2023-02-18T06:41:25.880Z,20.19
2023-02-18T06:42:25.927Z,20.18
2023-02-18T06:43:25.967Z,20.19
2023-02-18T06:44:26.052Z,20.17
2023-02-18T06:45:26.110Z,20.18
2023-02-18T06:49:26.341Z,20.20
2023-02-18T06:50:26.371Z,20.19
2023-02-18T06:51:26.425Z,20.18
2023-02-18T06:52:26.513Z,20.19
2023-02-18T06:54:26.631Z,20.22
2023-02-18T06:55:26.690Z,20.19
2023-02-18T06:56:26.747Z,20.20
2023-02-18T06:57:26.804Z,20.18
2023-02-18T06:58:26.896Z,20.17
2023-02-18T06:59:26.930Z,20.18
2023-02-18T07:18:28.072Z,20.17
2023-02-18T07:19:28.140Z,20.18
2023-02-18T07:20:28.188Z,20.18
2023-02-18T07:21:28.244Z,20.18
2023-02-18T07:22:28.306Z,20.18
2023-02-18T07:23:28.373Z,20.19
2023-02-18T07:24:28.483Z,20.18
2023-02-18T07:25:28.469Z,20.18
2023-02-18T07:26:28.544Z,20.20
2023-02-18T07:27:28.589Z,20.20
2023-02-18T07:28:28.666Z,20.18
2023-02-18T07:29:28.704Z,20.18
2023-02-18T07:30:28.800Z,20.16
2023-02-18T07:31:28.924Z,20.17
2023-02-18T07:32:28.850Z,20.14
2023-02-18T07:33:28.928Z,20.14
2023-02-18T07:34:28.957Z,20.14
2023-02-18T07:35:29.010Z,20.12
2023-02-18T07:36:29.088Z,20.11
2023-02-18T07:37:29.133Z,20.10
2023-02-18T07:38:29.154Z,20.10
2023-02-18T07:39:29.199Z,20.09
2023-02-18T07:40:29.305Z,20.10
2023-02-18T07:41:29.294Z,20.07
2023-02-18T07:42:29.323Z,20.09
2023-02-18T07:43:29.386Z,20.09
2023-02-18T07:44:29.441Z,20.07
2023-02-18T07:45:29.499Z,20.09
2023-02-18T07:46:29.489Z,20.05
2023-02-18T07:47:29.520Z,20.03
2023-02-18T07:48:29.564Z,20.04
2023-02-18T07:49:29.605Z,20.02
2023-02-18T07:50:29.655Z,20.04
2023-02-18T07:51:29.681Z,20.05
2023-02-18T07:52:29.684Z,20.09
2023-02-18T07:53:29.720Z,20.11
2023-02-18T07:54:29.753Z,20.09
2023-02-18T07:55:29.785Z,20.10
2023-02-18T07:56:30.622Z,20.09
2023-02-18T07:57:29.868Z,20.09
2023-02-18T07:58:29.916Z,20.09
2023-02-18T07:59:29.920Z,20.11
2023-02-18T08:00:29.940Z,20.13
2023-02-18T08:03:30.060Z,20.16
2023-02-18T08:05:30.135Z,20.18
2023-02-18T08:06:30.150Z,20.19
2023-02-18T08:07:30.172Z,20.16
2023-02-18T08:08:30.199Z,20.21
2023-02-18T08:09:30.252Z,20.21
2023-02-18T08:10:30.261Z,20.21
2023-02-18T08:11:30.342Z,20.23
2023-02-18T08:12:30.348Z,20.27
2023-02-18T08:13:30.386Z,20.24
2023-02-18T08:14:30.434Z,20.22
2023-02-18T08:15:30.475Z,20.21
2023-02-18T08:16:30.506Z,20.21
2023-02-18T08:17:30.545Z,20.22
2023-02-18T08:18:30.568Z,20.22
2023-02-18T08:19:30.646Z,20.20
2023-02-18T08:20:30.906Z,20.20
2023-02-18T08:21:30.649Z,20.20
2023-02-18T08:22:30.700Z,20.20
2023-02-18T08:23:30.690Z,20.18
2023-02-18T08:24:30.729Z,20.17
2023-02-18T08:25:30.781Z,20.17
2023-02-18T08:26:30.818Z,20.19
2023-02-18T08:27:30.849Z,20.19
2023-02-18T08:28:30.837Z,20.17
2023-02-18T08:29:30.875Z,20.17
2023-02-18T08:33:30.981Z,20.19
2023-02-18T08:34:30.997Z,20.19
2023-02-18T08:35:31.006Z,20.22
2023-02-18T08:36:31.038Z,20.19
2023-02-18T08:37:31.029Z,20.20
2023-02-18T08:38:32.035Z,20.19
2023-02-18T08:39:31.088Z,20.20
2023-02-18T08:40:31.037Z,20.24
2023-02-18T08:41:31.045Z,20.26
2023-02-18T08:42:31.029Z,20.24
2023-02-18T08:43:31.021Z,20.26
2023-02-18T08:44:31.025Z,20.27
2023-02-18T08:45:30.983Z,20.25
2023-02-18T08:46:35.148Z,20.25
2023-02-18T08:48:17.071Z,20.26
2023-02-18T08:48:31.966Z,20.28
2023-02-18T08:49:30.952Z,20.25
2023-02-18T08:50:30.957Z,20.24
2023-02-18T08:51:30.923Z,20.23
2023-02-18T08:52:30.925Z,20.26
2023-02-18T08:53:30.942Z,20.26
2023-02-18T08:54:30.913Z,20.25
2023-02-18T08:55:30.910Z,20.25
2023-02-18T08:56:30.937Z,20.26
2023-02-18T08:57:30.903Z,20.28
2023-02-18T08:58:30.874Z,20.29
2023-02-18T08:59:30.870Z,20.29
2023-02-18T09:00:30.867Z,20.28
2023-02-18T09:01:30.896Z,20.30
2023-02-18T09:02:30.879Z,20.29
2023-02-18T09:03:30.864Z,20.28
2023-02-18T09:04:30.909Z,20.29
2023-02-18T09:05:30.827Z,20.27
2023-02-18T09:06:30.864Z,20.26
2023-02-18T09:07:30.815Z,20.24
2023-02-18T09:08:30.841Z,20.24
2023-02-18T09:09:30.865Z,20.23
2023-02-18T09:10:30.809Z,20.23
2023-02-18T09:11:30.829Z,20.23
2023-02-18T09:12:30.812Z,20.22
2023-02-18T09:13:30.777Z,20.23
2023-02-18T09:14:30.791Z,20.23
2023-02-18T09:15:30.839Z,20.25
2023-02-18T09:16:30.759Z,20.26
2023-02-18T09:17:30.758Z,20.25
2023-02-18T09:18:30.773Z,20.24
2023-02-18T09:19:30.732Z,20.23
2023-02-18T09:20:30.724Z,20.27
2023-02-18T09:21:30.739Z,20.27
2023-02-18T09:22:30.728Z,20.27
2023-02-18T09:23:30.713Z,20.28
2023-02-18T09:24:30.708Z,20.28
2023-02-18T09:25:30.671Z,20.27
2023-02-18T09:26:30.808Z,20.29
2023-02-18T09:27:30.702Z,20.28
2023-02-18T09:28:30.705Z,20.29
2023-02-18T09:29:30.674Z,20.28
2023-02-18T09:30:30.708Z,20.32
2023-02-18T09:31:30.818Z,20.33
2023-02-18T09:32:35.152Z,20.33
2023-02-18T09:33:30.623Z,20.32
2023-02-18T09:34:30.639Z,20.33
2023-02-18T09:35:30.596Z,20.31
2023-02-18T09:36:30.624Z,20.32
2023-02-18T09:37:30.610Z,20.33
2023-02-18T09:38:30.597Z,20.32
2023-02-18T09:39:30.563Z,20.32
2023-02-18T09:40:30.568Z,20.30
2023-02-18T09:41:31.151Z,20.28
2023-02-18T09:42:30.557Z,20.25
2023-02-18T09:43:30.568Z,20.24
2023-02-18T09:44:30.552Z,20.22
2023-02-18T09:45:30.534Z,20.20
2023-02-18T09:46:30.619Z,20.20
2023-02-18T09:47:30.549Z,20.19
2023-02-18T09:48:30.523Z,20.19
2023-02-18T09:49:30.528Z,20.17
2023-02-18T09:50:30.513Z,20.20
2023-02-18T09:51:30.491Z,20.18
2023-02-18T09:52:30.513Z,20.17
2023-02-18T09:53:30.489Z,20.18
2023-02-18T09:54:30.587Z,20.15
2023-02-18T09:55:30.481Z,20.16
2023-02-18T09:56:30.549Z,20.15
2023-02-18T09:57:30.485Z,20.16
2023-02-18T09:58:30.443Z,20.15
2023-02-18T09:59:30.418Z,20.15
2023-02-18T10:00:30.437Z,20.14
2023-02-18T10:01:30.496Z,20.16
2023-02-18T10:02:30.427Z,20.15
2023-02-18T10:03:30.464Z,20.16
2023-02-18T10:04:30.533Z,20.14
2023-02-18T10:05:30.580Z,20.14
2023-02-18T10:06:30.627Z,20.15
2023-02-18T10:07:30.688Z,20.16
2023-02-18T10:08:30.690Z,20.15
2023-02-18T10:41:32.673Z,20.24
2023-02-18T10:42:32.742Z,20.23
2023-02-18T10:43:32.770Z,20.23
2023-02-18T10:44:32.802Z,20.25
2023-02-18T10:45:32.993Z,20.25
2023-02-18T10:46:32.945Z,20.26
2023-02-18T10:47:33.002Z,20.25
2023-02-18T10:48:33.089Z,20.25
2023-02-18T10:49:33.134Z,20.25
2023-02-18T10:50:33.166Z,20.25
2023-02-18T10:51:33.221Z,20.24
2023-02-18T10:52:33.323Z,20.26
2023-02-18T10:53:33.327Z,20.26
2023-02-18T10:54:33.379Z,20.26
2023-02-18T10:55:33.481Z,20.23
2023-02-18T10:56:33.625Z,20.24
2023-02-18T10:57:33.596Z,20.23
2023-02-18T10:58:33.636Z,20.25
2023-02-18T10:59:33.715Z,20.24
2023-02-18T11:00:33.759Z,20.26
2023-02-18T11:01:33.831Z,20.26
2023-02-18T11:02:33.846Z,20.27
2023-02-18T11:03:33.915Z,20.28
2023-02-18T11:04:34.019Z,20.30
2023-02-18T11:05:34.026Z,20.30
2023-02-18T11:06:34.190Z,20.31
2023-02-18T11:07:34.114Z,20.29
2023-02-18T11:08:34.138Z,20.28
2023-02-18T11:09:34.207Z,20.26
2023-02-18T11:10:34.272Z,20.27
2023-02-18T11:11:34.325Z,20.27
2023-02-18T11:12:34.395Z,20.27
2023-02-18T11:13:34.430Z,20.28
2023-02-18T11:14:34.494Z,20.27
2023-02-18T11:15:34.561Z,20.30
2023-02-18T11:16:34.573Z,20.29
2023-02-18T11:17:34.608Z,20.29
2023-02-18T11:18:34.677Z,20.29
2023-02-18T11:19:34.748Z,20.27
2023-02-18T11:20:34.760Z,20.28
2023-02-18T11:21:34.799Z,20.27
2023-02-18T11:22:34.795Z,20.30
2023-02-18T11:23:34.847Z,20.28
2023-02-18T11:24:34.859Z,20.29
2023-02-18T11:25:34.929Z,20.30
2023-02-18T11:26:34.951Z,20.31
2023-02-18T11:27:35.026Z,20.34
2023-02-18T11:28:35.045Z,20.34
2023-02-18T11:29:35.066Z,20.35
2023-02-18T11:30:35.164Z,20.36
2023-02-18T11:31:35.256Z,20.35
2023-02-18T11:32:35.222Z,20.37
2023-02-18T11:33:35.236Z,20.40
2023-02-18T11:34:35.292Z,20.41
2023-02-18T11:35:35.307Z,20.40
2023-02-18T11:36:35.369Z,20.41
2023-02-18T11:37:35.401Z,20.40
2023-02-18T11:38:35.478Z,20.42
2023-02-18T11:39:35.481Z,20.40
2023-02-18T11:40:35.533Z,20.40
2023-02-18T11:41:35.590Z,20.42
2023-02-18T11:42:35.607Z,20.40
2023-02-18T11:43:35.673Z,20.41
2023-02-18T11:44:35.739Z,20.40
2023-02-18T11:45:35.762Z,20.39
2023-02-18T11:46:35.859Z,20.41
2023-02-18T11:47:35.878Z,20.42
2023-02-18T11:48:35.941Z,20.40
2023-02-18T11:49:35.995Z,20.39
2023-02-18T11:50:36.067Z,20.38
2023-02-18T11:51:36.103Z,20.38
2023-02-18T11:52:36.185Z,20.39
2023-02-18T11:53:36.245Z,20.37
2023-02-18T11:54:36.289Z,20.38
2023-02-18T11:55:36.419Z,20.36
2023-02-18T11:56:36.410Z,20.37
2023-02-18T11:57:36.495Z,20.36
2023-02-18T11:58:36.547Z,20.38
2023-02-18T11:59:36.617Z,20.38
2023-02-18T12:00:36.729Z,20.38
2023-02-18T12:12:37.454Z,20.30
2023-02-18T12:46:39.197Z,20.29
2023-02-18T12:51:39.530Z,20.25
2023-02-18T12:52:39.566Z,20.24
2023-02-18T12:53:39.662Z,20.25
2023-02-18T12:54:39.719Z,20.26
2023-02-18T12:55:39.770Z,20.24
2023-02-18T12:56:39.839Z,20.24
2023-02-18T12:57:39.865Z,20.24
2023-02-18T12:58:39.938Z,20.25
2023-02-18T12:59:40.022Z,20.25
2023-02-18T13:00:40.053Z,20.26
2023-02-18T13:01:40.096Z,20.25
2023-02-18T13:47:43.162Z,20.27
2023-02-18T13:48:43.149Z,20.24
2023-02-18T13:49:43.132Z,20.23
2023-02-18T13:50:43.171Z,20.21
2023-02-18T13:51:43.154Z,20.21
2023-02-18T13:52:43.112Z,20.23
2023-02-18T13:53:43.115Z,20.23
2023-02-18T13:54:43.100Z,20.18
2023-02-18T13:55:43.101Z,20.17
2023-02-18T13:56:43.115Z,20.16
2023-02-18T13:57:43.091Z,20.18
2023-02-18T13:58:43.049Z,20.16
2023-02-18T13:59:43.075Z,20.14
2023-02-18T14:00:43.061Z,20.13
2023-02-18T14:01:43.179Z,20.14
2023-02-18T14:02:43.135Z,20.12
2023-02-18T14:03:43.053Z,20.07
2023-02-18T14:04:43.023Z,20.02
2023-02-18T14:05:43.031Z,20.02
2023-02-18T14:06:42.992Z,20.01
2023-02-18T14:07:43.051Z,19.99
2023-02-18T14:08:43.000Z,20.01
2023-02-18T14:09:43.029Z,20.01
2023-02-18T14:10:43.028Z,20.00
2023-02-18T14:11:42.992Z,20.00
2023-02-18T14:12:42.974Z,20.01
2023-02-18T14:13:42.983Z,20.00
2023-02-18T14:14:42.935Z,20.01
2023-02-18T14:15:42.971Z,20.00
2023-02-18T14:16:42.952Z,19.99
2023-02-18T14:17:42.932Z,20.01
2023-02-18T14:18:42.936Z,19.99
2023-02-18T14:19:42.912Z,19.97
2023-02-18T14:20:42.935Z,19.99
2023-02-18T14:21:42.894Z,19.98
2023-02-18T14:22:42.916Z,20.02
2023-02-18T14:23:42.866Z,20.00
2023-02-18T14:24:42.926Z,19.99
2023-02-18T14:25:42.876Z,19.97
2023-02-18T14:26:42.876Z,19.98
2023-02-18T14:27:42.922Z,19.96
2023-02-18T14:28:42.956Z,19.97
2023-02-18T14:29:43.043Z,19.97
2023-02-18T14:30:43.154Z,19.96
2023-02-18T14:31:43.221Z,19.96
2023-02-18T14:32:43.214Z,19.97
2023-02-18T14:33:43.191Z,19.97
2023-02-18T14:34:43.289Z,19.95
2023-02-18T14:35:43.336Z,19.93
2023-02-18T14:36:43.389Z,19.92
2023-02-18T14:37:43.421Z,19.93
2023-02-18T14:38:43.465Z,19.93
2023-02-18T14:39:43.495Z,19.90
2023-02-18T14:40:43.873Z,19.89
2023-02-18T14:41:43.945Z,19.88
2023-02-18T14:42:43.624Z,19.88
2023-02-18T14:43:43.656Z,19.89
2023-02-18T14:44:43.709Z,19.86
2023-02-18T14:45:43.767Z,19.88
2023-02-18T14:46:43.839Z,19.89
2023-02-18T14:47:43.876Z,19.89
2023-02-18T14:48:43.918Z,19.87
2023-02-18T14:49:43.965Z,19.84
2023-02-18T14:50:44.013Z,19.85
2023-02-18T14:51:44.007Z,19.85
2023-02-18T14:52:44.030Z,19.83
2023-02-18T14:53:44.067Z,19.83
2023-02-18T14:54:44.101Z,19.81
2023-02-18T14:55:44.090Z,19.82
2023-02-18T14:56:44.076Z,19.81
2023-02-18T14:57:44.104Z,19.83
2023-02-18T14:58:44.109Z,19.81
2023-02-18T14:59:44.120Z,19.83
2023-02-18T15:00:44.162Z,19.81
2023-02-18T15:01:44.238Z,19.81
2023-02-18T15:02:44.215Z,19.80
2023-02-18T15:03:44.256Z,19.83
2023-02-18T15:04:44.211Z,19.82
2023-02-18T15:05:44.223Z,19.79
2023-02-18T15:06:44.198Z,19.78
2023-02-18T15:07:44.220Z,19.79
2023-02-18T15:08:44.203Z,19.79
2023-02-18T15:09:44.283Z,19.78
2023-02-18T15:10:44.240Z,19.77
2023-02-18T15:11:44.238Z,19.76
2023-02-18T15:12:44.261Z,19.77
2023-02-18T15:13:44.316Z,19.75
2023-02-18T15:14:44.301Z,19.77
2023-02-18T15:15:44.346Z,19.75
2023-02-18T15:16:44.308Z,19.75
2023-02-18T15:17:44.342Z,19.76
2023-02-18T15:18:44.349Z,19.76
2023-02-18T15:19:44.347Z,19.75
2023-02-18T15:20:44.365Z,19.74
2023-02-18T15:21:44.371Z,19.74
2023-02-18T15:22:44.355Z,19.74
2023-02-18T15:23:44.379Z,19.73
2023-02-18T15:24:44.356Z,19.73
2023-02-18T15:25:44.376Z,19.72
2023-02-18T15:26:44.370Z,19.71
2023-02-18T15:27:44.400Z,19.71
2023-02-18T15:28:44.361Z,19.69
2023-02-18T15:29:44.339Z,19.70
2023-02-18T15:30:44.387Z,19.71
2023-02-18T15:31:44.462Z,19.70
2023-02-18T15:32:44.363Z,19.69
2023-02-18T15:33:44.367Z,19.69
2023-02-18T15:34:44.312Z,19.66
2023-02-18T15:35:44.323Z,19.67
2023-02-18T15:36:44.366Z,19.68
2023-02-18T15:37:44.375Z,19.66
2023-02-18T15:38:44.886Z,19.66
2023-02-18T15:39:44.367Z,19.67
2023-02-18T15:40:44.365Z,19.68
2023-02-18T15:41:44.385Z,19.65
2023-02-18T15:42:44.359Z,19.69
2023-02-18T15:43:44.361Z,19.65
2023-02-18T15:44:44.337Z,19.66
2023-02-18T15:45:44.354Z,19.65
2023-02-18T15:46:44.393Z,19.64
2023-02-18T15:47:44.355Z,19.62
2023-02-18T15:48:44.312Z,19.62
2023-02-18T15:49:44.352Z,19.63
2023-02-18T15:50:44.342Z,19.61
2023-02-18T15:51:44.325Z,19.62
2023-02-18T15:52:44.307Z,19.61
2023-02-18T15:53:44.318Z,19.60
2023-02-18T15:54:44.355Z,19.59
2023-02-18T15:55:44.340Z,19.60
2023-02-18T15:56:44.316Z,19.60
2023-02-18T15:57:44.353Z,19.61
2023-02-18T15:58:44.310Z,19.60
2023-02-18T15:59:44.308Z,19.61
2023-02-18T16:00:44.295Z,19.59
2023-02-18T16:01:44.348Z,19.58
2023-02-18T16:02:44.312Z,19.59
2023-02-18T16:03:44.336Z,19.55
2023-02-18T16:04:44.269Z,19.56
2023-02-18T16:05:44.298Z,19.56
2023-02-18T16:06:44.317Z,19.56
2023-02-18T16:07:44.295Z,19.56
2023-02-18T16:08:44.273Z,19.56
2023-02-18T16:09:44.280Z,19.55
2023-02-18T16:10:44.295Z,19.56
2023-02-18T16:11:44.315Z,19.52
2023-02-18T16:12:44.261Z,19.52
2023-02-18T16:13:44.287Z,19.51
2023-02-18T16:14:44.263Z,19.49
2023-02-18T16:15:44.261Z,19.48
2023-02-18T16:16:44.325Z,19.47
2023-02-18T16:17:44.256Z,19.48
2023-02-18T16:18:44.242Z,19.48
2023-02-18T16:19:49.082Z,19.47
2023-02-18T16:20:45.259Z,19.46